Time;durP1;ratioP1;P1;durP2;ratioP2;P2;SDS_P1;SDS_P2;PMS_P1;PMS_P2;Temp;Humidity;BMP_temperature;BMP_pressure;BME280_temperature;BME280_humidity;BME280_pressure;Samples;Min_cycle;Max_cycle;Signal;HPM_P1;HPM_P2
2020/12/10 00:02:27;;;;;;;24.13;11.10;;;3.00;99.90;;;;;;4855719;29;20296;-90
2020/12/10 00:05:11;;;;;;;20.10;11.43;;;3.10;99.90;;;;;;4860984;29;20193;-88
2020/12/10 00:07:38;;;;;;;17.57;10.70;;;3.10;99.90;;;;;;4855251;29;20461;-89
2020/12/10 00:10:06;;;;;;;20.23;10.50;;;3.20;99.90;;;;;;4858049;29;20803;-88
2020/12/10 00:12:32;;;;;;;20.53;11.37;;;3.10;99.90;;;;;;4867147;29;20814;-76
2020/12/10 00:15:13;;;;;;;19.07;10.80;;;3.20;99.90;;;;;;4866915;29;20559;-80
2020/12/10 00:17:38;;;;;;;19.23;10.90;;;3.20;99.90;;;;;;4867812;29;20442;-78
2020/12/10 00:20:09;;;;;;;18.77;10.50;;;3.20;99.90;;;;;;4864740;29;20865;-81
2020/12/10 00:22:37;;;;;;;16.87;10.23;;;3.30;99.90;;;;;;4872783;29;20225;-81
2020/12/10 00:25:06;;;;;;;20.27;9.73;;;3.30;99.90;;;;;;4864555;29;20461;-81
2020/12/10 00:27:33;;;;;;;19.67;10.73;;;3.40;99.90;;;;;;4869714;29;20441;-82
2020/12/10 00:29:58;;;;;;;21.37;10.83;;;3.40;99.90;;;;;;4866065;29;20443;-78
2020/12/10 00:32:27;;;;;;;18.80;10.10;;;3.40;99.90;;;;;;4857156;29;20489;-77
2020/12/10 00:35:17;;;;;;;14.33;9.37;;;3.30;99.90;;;;;;4865729;29;20212;-84
2020/12/10 00:37:46;;;;;;;20.30;11.70;;;3.30;99.90;;;;;;4847007;29;20473;-85
2020/12/10 00:40:11;;;;;;;18.03;10.10;;;3.30;99.90;;;;;;4856850;29;20525;-86
2020/12/10 00:42:37;;;;;;;19.07;11.57;;;3.30;99.90;;;;;;4881208;29;20545;-83
2020/12/10 00:45:14;;;;;;;17.60;10.17;;;3.30;99.90;;;;;;4874657;29;20744;-85
2020/12/10 00:47:40;;;;;;;19.47;10.90;;;3.30;99.90;;;;;;4862198;29;20559;-85
2020/12/10 00:50:12;;;;;;;20.23;11.07;;;3.20;99.90;;;;;;4856583;29;20454;-87
2020/12/10 00:52:38;;;;;;;23.57;11.60;;;3.20;99.90;;;;;;4844708;29;20269;-86
2020/12/10 00:55:06;;;;;;;18.00;10.10;;;3.20;99.90;;;;;;4872718;29;20542;-86
2020/12/10 00:57:39;;;;;;;18.40;10.37;;;3.20;99.90;;;;;;4860900;29;20794;-85
2020/12/10 01:00:08;;;;;;;17.40;10.63;;;3.10;99.90;;;;;;4870818;29;20489;-86
2020/12/10 01:03:25;;;;;;;14.70;9.10;;;3.10;99.90;;;;;;4858844;29;20480;-88
2020/12/10 01:05:56;;;;;;;22.63;10.70;;;3.20;99.90;;;;;;4853448;29;20437;-84
2020/12/10 01:08:28;;;;;;;18.80;9.70;;;3.20;99.90;;;;;;4855344;29;20960;-87
2020/12/10 01:10:54;;;;;;;13.63;9.00;;;3.20;99.90;;;;;;4874297;29;20450;-86
2020/12/10 01:13:20;;;;;;;18.10;11.67;;;3.20;99.90;;;;;;4855832;29;20454;-84
2020/12/10 01:16:01;;;;;;;22.60;11.77;;;3.20;99.90;;;;;;4873327;29;20220;-87
2020/12/10 01:19:06;;;;;;;17.57;10.10;;;3.20;99.90;;;;;;4864214;29;20284;-88
2020/12/10 01:22:02;;;;;;;18.23;11.00;;;3.20;99.90;;;;;;4866932;29;21003;-85
2020/12/10 01:24:28;;;;;;;20.13;9.93;;;3.20;99.90;;;;;;4856935;29;20547;-88
2020/12/10 01:26:54;;;;;;;19.27;10.30;;;3.20;99.90;;;;;;4869716;29;20442;-87
2020/12/10 01:29:22;;;;;;;22.07;11.17;;;3.20;99.90;;;;;;4874730;29;20201;-89
2020/12/10 01:31:50;;;;;;;18.50;9.93;;;3.20;99.90;;;;;;4858900;29;20224;-89
2020/12/10 01:34:30;;;;;;;20.40;10.20;;;3.20;99.90;;;;;;4880536;29;20455;-88
2020/12/10 01:36:57;;;;;;;17.77;10.00;;;3.20;99.90;;;;;;4864297;29;20466;-86
2020/12/10 01:39:45;;;;;;;;;;;;;;;;;;;;;
2020/12/10 01:42:26;;;;;;;14.00;10.10;;;3.20;99.90;;;;;;4886975;29;21066;-89
2020/12/10 01:44:51;;;;;;;21.50;10.20;;;3.30;99.90;;;;;;4874145;29;20818;-88
2020/12/10 01:47:34;;;;;;;16.60;9.57;;;3.20;99.90;;;;;;4861521;29;20414;-86
2020/12/10 01:50:15;;;;;;;23.60;11.10;;;3.20;99.90;;;;;;4850306;29;20543;-87
2020/12/10 01:52:43;;;;;;;19.83;11.07;;;3.20;99.90;;;;;;4861765;29;20449;-86
2020/12/10 01:55:14;;;;;;;16.60;10.27;;;3.20;99.90;;;;;;4846900;29;20438;-85
2020/12/10 02:00:53;;;;;;;;;;;;;;;;;;;;;
2020/12/10 02:03:23;;;;;;;21.77;9.30;;;3.30;99.90;;;;;;4894775;29;20487;-90
2020/12/10 02:05:51;;;;;;;18.90;10.40;;;3.30;99.90;;;;;;4880766;29;20858;-89
2020/12/10 02:08:26;;;;;;;17.00;9.93;;;3.30;99.90;;;;;;4878286;29;20466;-89
2020/12/10 02:10:54;;;;;;;16.70;10.87;;;3.30;99.90;;;;;;4880971;29;20481;-89
2020/12/10 02:13:20;;;;;;;16.43;9.70;;;3.30;99.90;;;;;;4876496;29;20534;-88
2020/12/10 02:15:58;;;;;;;19.93;10.33;;;3.30;99.90;;;;;;4896341;29;20478;-88
2020/12/10 02:18:23;;;;;;;20.17;10.23;;;3.30;99.90;;;;;;4882941;29;20474;-88
2020/12/10 02:20:52;;;;;;;15.90;10.13;;;3.40;99.90;;;;;;4864716;29;20458;-89
2020/12/10 02:23:17;;;;;;;20.70;10.90;;;3.40;99.90;;;;;;4891835;29;20229;-87
2020/12/10 02:25:43;;;;;;;21.00;11.47;;;3.40;99.90;;;;;;4843692;29;20450;-87
2020/12/10 02:28:16;;;;;;;20.17;11.47;;;3.40;99.90;;;;;;4869022;29;20236;-89
2020/12/10 02:30:44;;;;;;;22.03;10.93;;;3.40;99.90;;;;;;4853582;29;20245;-88
2020/12/10 02:33:13;;;;;;;19.33;11.00;;;3.40;99.90;;;;;;4872117;29;20462;-87
2020/12/10 02:35:43;;;;;;;21.77;11.67;;;3.50;99.90;;;;;;4852660;29;20469;-89
2020/12/10 02:38:10;;;;;;;18.83;10.77;;;3.50;99.90;;;;;;4868916;29;20434;-88
2020/12/10 02:40:54;;;;;;;17.53;10.87;;;3.40;99.90;;;;;;4868250;29;20501;-88
2020/12/10 02:43:20;;;;;;;18.73;11.20;;;3.40;99.90;;;;;;4848586;29;20447;-86
2020/12/10 02:45:48;;;;;;;19.70;9.87;;;3.50;99.90;;;;;;4855559;29;20880;-88
2020/12/10 02:48:20;;;;;;;21.30;10.63;;;3.50;99.90;;;;;;4858185;29;20205;-89
2020/12/10 02:50:45;;;;;;;15.80;10.97;;;3.50;99.90;;;;;;4894858;29;20458;-89
2020/12/10 02:53:13;;;;;;;21.77;9.60;;;3.50;99.90;;;;;;4877090;29;20552;-90
2020/12/10 02:55:39;;;;;;;13.60;9.37;;;3.50;99.90;;;;;;4875869;29;20237;-89
2020/12/10 02:58:05;;;;;;;17.13;11.30;;;3.60;99.90;;;;;;4876509;29;20447;-89
2020/12/10 03:00:30;;;;;;;16.87;10.23;;;3.50;99.90;;;;;;4892398;29;20186;-87
2020/12/10 03:02:56;;;;;;;17.07;10.37;;;3.50;99.90;;;;;;4890147;29;20194;-90
2020/12/10 03:05:22;;;;;;;15.00;9.23;;;3.50;99.90;;;;;;4889445;29;20190;-90
2020/12/10 03:07:47;;;;;;;21.73;11.57;;;3.50;99.90;;;;;;4889912;29;20219;-89
2020/12/10 03:10:13;;;;;;;22.20;10.60;;;3.50;99.90;;;;;;4879835;29;20201;-87
2020/12/10 03:12:39;;;;;;;15.63;9.87;;;3.60;99.90;;;;;;4843931;29;20209;-87
2020/12/10 03:15:05;;;;;;;17.20;10.17;;;3.50;99.90;;;;;;4869823;29;20209;-88
2020/12/10 03:17:31;;;;;;;20.70;10.60;;;3.50;99.90;;;;;;4863238;29;20221;-84
2020/12/10 03:19:57;;;;;;;16.50;9.50;;;3.50;99.90;;;;;;4893885;29;20436;-88
2020/12/10 03:22:22;;;;;;;17.23;9.33;;;3.50;99.90;;;;;;4893387;29;20434;-90
2020/12/10 03:24:48;;;;;;;15.87;10.13;;;3.50;99.90;;;;;;4894581;29;20197;-89
2020/12/10 03:27:14;;;;;;;15.70;9.80;;;3.50;99.90;;;;;;4889308;29;20238;-87
2020/12/10 03:29:39;;;;;;;14.83;9.47;;;3.50;99.90;;;;;;4879387;29;20182;-89
2020/12/10 03:32:05;;;;;;;17.10;9.77;;;3.50;99.90;;;;;;4877681;29;20209;-89
2020/12/10 03:34:32;;;;;;;16.90;10.03;;;3.50;99.90;;;;;;4892989;29;20233;-91
2020/12/10 03:37:01;;;;;;;16.67;10.07;;;3.40;99.90;;;;;;4863125;29;20494;-90
2020/12/10 03:39:28;;;;;;;19.37;11.27;;;3.40;99.90;;;;;;4895094;29;20437;-88
2020/12/10 03:41:58;;;;;;;17.90;9.37;;;3.50;99.90;;;;;;4879359;29;20454;-88
2020/12/10 03:44:27;;;;;;;19.20;11.40;;;3.50;99.90;;;;;;4891727;29;20483;-89
2020/12/10 03:46:55;;;;;;;19.90;11.10;;;3.50;99.90;;;;;;4881538;29;20422;-87
2020/12/10 03:49:46;;;;;;;20.57;10.67;;;3.50;99.90;;;;;;4885961;29;20426;-90
2020/12/10 03:52:16;;;;;;;19.80;10.80;;;3.40;99.90;;;;;;4872212;29;20501;-89
2020/12/10 03:54:47;;;;;;;20.13;11.13;;;3.40;99.90;;;;;;4874435;29;20451;-87
2020/12/10 03:57:25;;;;;;;17.47;10.33;;;3.40;99.90;;;;;;4868670;29;20475;-89
2020/12/10 04:00:18;;;;;;;16.40;10.00;;;3.30;99.90;;;;;;4861727;29;20477;-86
2020/12/10 04:02:53;;;;;;;17.50;10.17;;;3.20;99.90;;;;;;4854880;29;20427;-87
2020/12/10 04:05:19;;;;;;;21.33;12.40;;;3.20;99.90;;;;;;4859458;29;20448;-87
2020/12/10 04:07:44;;;;;;;21.00;10.53;;;3.20;99.90;;;;;;4857846;29;20430;-86
2020/12/10 04:10:10;;;;;;;18.53;11.40;;;3.20;99.90;;;;;;4874337;29;20190;-86
2020/12/10 04:12:36;;;;;;;19.73;10.23;;;3.20;99.90;;;;;;4877541;29;20251;-86
2020/12/10 04:15:01;;;;;;;21.17;12.43;;;3.20;99.90;;;;;;4875395;29;20186;-87
2020/12/10 04:17:27;;;;;;;18.87;11.30;;;3.30;99.90;;;;;;4875441;29;20686;-87
2020/12/10 04:19:52;;;;;;;23.70;10.53;;;3.30;99.90;;;;;;4877246;29;20210;-88
2020/12/10 04:22:18;;;;;;;16.30;10.03;;;3.20;99.90;;;;;;4874079;29;20210;-87
2020/12/10 04:24:44;;;;;;;19.10;10.77;;;3.20;99.90;;;;;;4873673;29;20198;-88
2020/12/10 04:27:09;;;;;;;16.67;10.40;;;3.10;99.90;;;;;;4878922;29;20194;-88
2020/12/10 04:32:26;;;;;;;17.70;10.20;;;3.10;99.90;;;;;;4873301;29;20214;-90
2020/12/10 04:34:55;;;;;;;18.27;10.60;;;3.10;99.90;;;;;;4859152;29;20608;-88
2020/12/10 04:37:29;;;;;;;15.97;10.10;;;3.10;99.90;;;;;;4858190;29;20477;-88
2020/12/10 04:39:58;;;;;;;17.03;10.60;;;3.10;99.90;;;;;;4859279;29;20493;-89
2020/12/10 04:42:39;;;;;;;19.80;11.90;;;3.00;99.90;;;;;;4878233;29;20518;-88
2020/12/10 04:45:16;;;;;;;20.67;10.53;;;3.00;99.90;;;;;;4857401;29;20522;-88
2020/12/10 04:47:49;;;;;;;21.10;11.40;;;2.90;99.90;;;;;;4858897;29;20445;-88
2020/12/10 04:50:19;;;;;;;22.60;12.17;;;2.80;99.90;;;;;;4874454;29;20589;-88
2020/12/10 04:52:46;;;;;;;18.20;10.60;;;2.90;99.90;;;;;;4860477;29;20444;-88
2020/12/10 04:55:20;;;;;;;18.93;10.97;;;2.90;99.90;;;;;;4875812;29;20535;-88
2020/12/10 04:57:52;;;;;;;14.90;9.70;;;2.90;99.90;;;;;;4862989;29;20446;-89
2020/12/10 05:00:27;;;;;;;21.03;11.90;;;2.90;99.90;;;;;;4856903;29;20471;-86
2020/12/10 05:02:53;;;;;;;20.40;11.37;;;2.90;99.90;;;;;;4872958;29;20858;-89
2020/12/10 05:05:29;;;;;;;17.67;9.00;;;2.80;99.90;;;;;;4842806;29;20518;-89
2020/12/10 05:07:57;;;;;;;18.23;10.30;;;2.90;99.90;;;;;;4873689;29;20193;-88
2020/12/10 05:10:23;;;;;;;20.00;10.50;;;2.80;99.90;;;;;;4859833;29;20455;-87
2020/12/10 05:12:49;;;;;;;19.73;10.13;;;2.80;99.90;;;;;;4877249;29;20434;-89
2020/12/10 05:15:34;;;;;;;18.17;10.00;;;2.70;99.90;;;;;;4875509;29;20432;-86
2020/12/10 05:18:14;;;;;;;22.63;10.40;;;2.80;99.90;;;;;;4855932;29;20454;-88
2020/12/10 05:20:49;;;;;;;16.40;9.10;;;2.90;99.90;;;;;;4861408;29;21134;-89
2020/12/10 05:23:34;;;;;;;20.07;9.93;;;2.90;99.90;;;;;;4873183;29;20442;-88
2020/12/10 05:26:04;;;;;;;18.00;10.17;;;2.90;99.90;;;;;;4873769;29;20439;-85
2020/12/10 05:28:50;;;;;;;14.80;9.10;;;2.90;99.90;;;;;;4855891;29;20446;-85
2020/12/10 05:31:20;;;;;;;15.83;8.77;;;3.00;99.90;;;;;;4855846;29;20489;-89
2020/12/10 05:33:57;;;;;;;17.53;10.23;;;3.00;99.90;;;;;;4873062;29;20553;-88
2020/12/10 05:36:23;;;;;;;18.43;10.43;;;3.00;99.90;;;;;;4874516;29;20470;-88
2020/12/10 05:39:04;;;;;;;19.13;9.93;;;3.00;99.90;;;;;;4874062;29;20529;-87
2020/12/10 05:41:32;;;;;;;17.60;10.50;;;3.00;99.90;;;;;;4871859;29;20461;-90
2020/12/10 05:44:20;;;;;;;17.13;9.83;;;3.10;99.90;;;;;;4869959;29;20450;-87
2020/12/10 05:46:48;;;;;;;17.30;10.07;;;3.10;99.90;;;;;;4868864;29;20434;-88
2020/12/10 05:49:15;;;;;;;16.80;11.10;;;3.00;99.90;;;;;;4870218;29;20438;-89
2020/12/10 05:51:50;;;;;;;20.60;10.87;;;3.00;99.90;;;;;;4852946;29;20542;-88
2020/12/10 05:54:18;;;;;;;19.17;11.00;;;3.00;99.90;;;;;;4873058;29;20455;-88
2020/12/10 05:56:46;;;;;;;17.57;10.67;;;2.90;99.90;;;;;;4871766;29;20845;-87
2020/12/10 05:59:13;;;;;;;20.90;10.10;;;2.90;99.90;;;;;;4870971;29;20451;-88
2020/12/10 06:01:38;;;;;;;18.67;11.23;;;3.00;99.90;;;;;;4871816;29;20480;-88
2020/12/10 06:04:04;;;;;;;20.87;10.97;;;3.00;99.90;;;;;;4871980;29;20450;-88
2020/12/10 06:06:31;;;;;;;16.13;10.60;;;3.00;99.90;;;;;;4876400;29;20198;-87
2020/12/10 06:09:02;;;;;;;16.30;10.37;;;2.90;99.90;;;;;;4856874;29;20209;-88
2020/12/10 06:11:29;;;;;;;24.00;13.47;;;3.00;99.90;;;;;;4874819;29;21062;-87
2020/12/10 06:14:05;;;;;;;22.00;11.83;;;3.00;99.90;;;;;;4876161;29;20455;-88
2020/12/10 06:16:34;;;;;;;18.57;10.20;;;3.00;99.90;;;;;;4874126;29;20505;-88
2020/12/10 06:19:10;;;;;;;17.77;10.37;;;2.90;99.90;;;;;;4873396;29;20457;-88
2020/12/10 06:21:46;;;;;;;23.20;11.43;;;2.90;99.90;;;;;;4874582;29;20450;-88
2020/12/10 06:24:29;;;;;;;17.20;9.37;;;2.90;99.90;;;;;;4878981;29;20442;-86
2020/12/10 06:26:59;;;;;;;13.93;9.43;;;3.00;99.90;;;;;;4876523;29;20450;-87
2020/12/10 06:29:30;;;;;;;13.43;9.03;;;3.10;99.90;;;;;;4874180;29;20431;-87
2020/12/10 06:32:05;;;;;;;16.23;9.30;;;3.00;99.90;;;;;;4861154;29;20877;-87
2020/12/10 06:34:42;;;;;;;18.67;10.30;;;3.00;99.90;;;;;;4858624;29;20465;-87
2020/12/10 06:37:14;;;;;;;16.53;9.93;;;3.00;99.90;;;;;;4877296;29;20493;-84
2020/12/10 06:39:39;;;;;;;18.17;10.87;;;3.00;99.90;;;;;;4875292;29;20823;-86
2020/12/10 06:42:05;;;;;;;16.10;9.60;;;3.00;99.90;;;;;;4874511;29;20465;-90
2020/12/10 06:44:32;;;;;;;20.10;9.67;;;3.00;99.90;;;;;;4872362;29;20221;-86
2020/12/10 06:46:58;;;;;;;20.90;10.70;;;3.00;99.90;;;;;;4876057;29;20198;-86
2020/12/10 06:49:29;;;;;;;14.53;8.33;;;3.00;99.90;;;;;;4868796;29;20519;-87
2020/12/10 06:52:15;;;;;;;15.87;9.60;;;2.90;99.90;;;;;;4874951;29;20470;-89
2020/12/10 06:55:06;;;;;;;17.23;10.00;;;2.80;99.90;;;;;;4892005;29;20443;-88
2020/12/10 06:57:50;;;;;;;20.70;11.30;;;2.80;99.90;;;;;;4886987;29;20478;-88
2020/12/10 07:00:55;;;;;;;17.37;9.30;;;2.80;99.90;;;;;;4854755;29;20457;-88
2020/12/10 07:03:31;;;;;;;17.90;9.90;;;2.80;99.90;;;;;;4806837;29;20467;-89
2020/12/10 07:05:56;;;;;;;19.53;10.03;;;2.80;99.90;;;;;;4855983;29;20653;-89
2020/12/10 07:08:28;;;;;;;17.93;10.00;;;2.80;99.90;;;;;;4851758;29;20453;-90
2020/12/10 07:10:54;;;;;;;16.90;10.07;;;2.80;99.90;;;;;;4872561;29;20327;-88
2020/12/10 07:13:32;;;;;;;15.83;9.40;;;2.70;99.90;;;;;;4870848;29;20528;-88
2020/12/10 07:15:57;;;;;;;18.13;10.90;;;2.70;99.90;;;;;;4855739;29;21026;-89
2020/12/10 07:18:23;;;;;;;20.20;11.20;;;2.70;99.90;;;;;;4858956;29;20453;-88
2020/12/10 07:20:49;;;;;;;18.73;10.43;;;2.70;99.90;;;;;;4859755;29;20283;-88
2020/12/10 07:23:14;;;;;;;17.57;10.30;;;2.70;99.90;;;;;;4871524;29;20209;-88
2020/12/10 07:25:48;;;;;;;18.10;9.93;;;2.80;99.90;;;;;;4868276;29;20683;-88
2020/12/10 07:28:21;;;;;;;21.13;10.10;;;2.80;99.90;;;;;;4872146;29;20189;-87
2020/12/10 07:30:49;;;;;;;16.40;8.50;;;2.80;99.90;;;;;;4873262;29;20455;-88
2020/12/10 07:33:19;;;;;;;29.27;10.10;;;2.90;99.90;;;;;;4858122;29;20658;-88
2020/12/10 07:35:53;;;;;;;13.67;8.87;;;2.80;99.90;;;;;;4856217;29;20481;-88
2020/12/10 07:38:22;;;;;;;14.70;9.53;;;2.80;99.90;;;;;;4870247;29;20540;-88
2020/12/10 07:40:54;;;;;;;13.93;9.27;;;2.70;99.90;;;;;;4872867;29;20448;-90
2020/12/10 07:43:25;;;;;;;16.63;9.20;;;2.70;99.90;;;;;;4870094;29;20433;-88
2020/12/10 07:46:00;;;;;;;16.13;10.70;;;2.70;99.90;;;;;;4840947;29;20461;-88
2020/12/10 07:48:26;;;;;;;14.83;8.10;;;2.70;99.90;;;;;;4877392;29;20429;-87
2020/12/10 07:50:52;;;;;;;33.33;10.53;;;2.70;99.90;;;;;;4877529;29;20516;-88
2020/12/10 07:53:20;;;;;;;20.60;10.00;;;2.80;99.90;;;;;;4860278;29;20565;-88
2020/12/10 07:56:09;;;;;;;21.43;10.33;;;2.80;99.90;;;;;;4861011;29;20236;-89
2020/12/10 07:58:58;;;;;;;14.40;7.80;;;2.90;99.90;;;;;;4874552;29;20473;-89
2020/12/10 08:01:24;;;;;;;20.27;9.57;;;2.90;99.90;;;;;;4879606;29;20453;-88
2020/12/10 08:04:18;;;;;;;16.40;8.20;;;2.90;99.90;;;;;;4875037;29;20434;-88
2020/12/10 08:06:49;;;;;;;18.17;10.17;;;3.00;99.90;;;;;;4841817;29;20447;-88
2020/12/10 08:09:15;;;;;;;10.70;7.77;;;3.00;99.90;;;;;;4851208;29;20919;-87
2020/12/10 08:11:48;;;;;;;13.57;8.37;;;3.00;99.90;;;;;;4878351;29;20509;-88
2020/12/10 08:14:14;;;;;;;18.37;8.03;;;3.00;99.90;;;;;;4877273;29;20548;-88
2020/12/10 08:16:43;;;;;;;11.50;7.67;;;3.10;99.90;;;;;;4849445;29;20563;-89
2020/12/10 08:19:17;;;;;;;13.47;8.33;;;3.20;99.90;;;;;;4855555;29;20548;-89
2020/12/10 08:21:45;;;;;;;9.67;7.30;;;3.20;99.90;;;;;;4875957;29;20469;-90
2020/12/10 08:24:12;;;;;;;13.63;8.00;;;3.20;99.90;;;;;;4861025;29;20434;-89
2020/12/10 08:26:39;;;;;;;18.87;9.57;;;3.20;99.90;;;;;;4873224;29;20529;-89
2020/12/10 08:29:05;;;;;;;12.47;8.20;;;3.20;99.90;;;;;;4873960;29;20451;-88
2020/12/10 08:31:33;;;;;;;12.80;8.43;;;3.20;99.90;;;;;;4858623;29;20706;-88
2020/12/10 08:33:58;;;;;;;14.47;9.10;;;3.20;99.90;;;;;;4871418;29;20465;-89
2020/12/10 08:36:29;;;;;;;13.07;8.10;;;3.20;99.90;;;;;;4877142;29;21002;-88
2020/12/10 08:38:55;;;;;;;16.00;9.53;;;3.20;99.90;;;;;;4878925;29;20197;-86
2020/12/10 08:41:52;;;;;;;15.20;8.20;;;3.20;99.90;;;;;;4875165;29;20461;-88
2020/12/10 08:44:17;;;;;;;13.30;9.20;;;3.30;99.90;;;;;;4859183;29;20497;-87
2020/12/10 08:46:43;;;;;;;18.13;8.17;;;3.30;99.90;;;;;;4876903;29;20438;-87
2020/12/10 08:49:19;;;;;;;13.30;9.53;;;3.40;99.90;;;;;;4876953;29;20212;-88
2020/12/10 08:51:48;;;;;;;13.57;8.00;;;3.40;99.90;;;;;;4876108;29;20226;-87
2020/12/10 08:54:15;;;;;;;13.27;6.60;;;3.40;99.90;;;;;;4873593;29;20434;-87
2020/12/10 08:56:40;;;;;;;18.17;8.50;;;3.40;99.90;;;;;;4876596;29;20505;-87
2020/12/10 08:59:06;;;;;;;14.50;8.17;;;3.40;99.90;;;;;;4864286;29;20458;-88
2020/12/10 09:01:33;;;;;;;11.50;6.80;;;3.40;99.90;;;;;;4876874;29;20281;-88
2020/12/10 09:03:59;;;;;;;13.40;8.13;;;3.40;99.90;;;;;;4860263;29;20446;-88
2020/12/10 09:06:37;;;;;;;14.97;9.40;;;3.50;99.90;;;;;;4872104;29;20430;-88
2020/12/10 09:09:04;;;;;;;16.53;8.83;;;3.50;99.90;;;;;;4876009;29;20537;-89
2020/12/10 09:11:33;;;;;;;16.37;9.73;;;3.60;99.90;;;;;;4860395;29;20469;-86
2020/12/10 09:13:59;;;;;;;18.13;9.60;;;3.60;99.90;;;;;;4873209;29;20438;-89
2020/12/10 09:16:29;;;;;;;21.87;10.80;;;3.60;99.90;;;;;;4874497;29;20559;-84
2020/12/10 09:18:55;;;;;;;16.50;8.63;;;3.70;99.90;;;;;;4872091;29;20442;-87
2020/12/10 09:21:21;;;;;;;12.90;7.37;;;3.70;99.90;;;;;;4874739;29;20463;-88
2020/12/10 09:23:48;;;;;;;14.93;9.40;;;3.70;99.90;;;;;;4859035;29;20979;-85
2020/12/10 09:26:22;;;;;;;16.53;9.37;;;3.70;99.90;;;;;;4851445;29;20451;-88
2020/12/10 09:28:47;;;;;;;13.73;8.47;;;3.70;99.90;;;;;;4874931;29;20933;-87
2020/12/10 09:31:16;;;;;;;15.87;7.57;;;3.70;99.90;;;;;;4874449;29;20470;-88
2020/12/10 09:33:43;;;;;;;12.57;7.47;;;3.70;99.90;;;;;;4867791;29;20205;-87
2020/12/10 09:36:08;;;;;;;19.47;10.43;;;3.60;99.90;;;;;;4864584;29;20903;-88
2020/12/10 09:38:40;;;;;;;16.30;9.67;;;3.60;99.90;;;;;;4870186;29;20431;-88
2020/12/10 09:41:08;;;;;;;14.47;9.07;;;3.70;99.90;;;;;;4874255;29;20201;-89
2020/12/10 09:43:34;;;;;;;15.73;9.20;;;3.80;99.90;;;;;;4871925;29;20452;-87
2020/12/10 09:46:11;;;;;;;16.50;9.53;;;3.80;99.90;;;;;;4857713;29;20865;-87
2020/12/10 09:48:37;;;;;;;19.67;11.10;;;3.80;99.90;;;;;;4856623;29;20525;-86
2020/12/10 09:51:04;;;;;;;20.80;9.27;;;3.80;99.90;;;;;;4870459;29;20648;-86
2020/12/10 09:53:40;;;;;;;19.07;10.90;;;3.90;99.90;;;;;;4857690;29;20789;-88
2020/12/10 09:56:42;;;;;;;16.20;10.43;;;4.00;99.90;;;;;;4832593;29;21069;-85
2020/12/10 09:59:35;;;;;;;23.00;10.60;;;4.10;99.90;;;;;;4866555;29;20431;-88
2020/12/10 10:02:07;;;;;;;16.47;9.57;;;4.30;99.90;;;;;;4867853;29;21029;-89
2020/12/10 10:05:09;;;;;;;15.33;9.53;;;4.30;99.90;;;;;;4844234;29;20510;-86
2020/12/10 10:07:43;;;;;;;14.70;8.70;;;4.40;99.90;;;;;;4837436;29;20439;-88
2020/12/10 10:10:17;;;;;;;16.40;9.60;;;4.40;99.90;;;;;;4865308;29;20992;-88
2020/12/10 10:12:51;;;;;;;14.67;9.17;;;4.30;99.90;;;;;;4856732;29;20530;-88
2020/12/10 10:15:17;;;;;;;19.63;9.93;;;4.40;99.90;;;;;;4857152;29;20454;-86
2020/12/10 10:17:43;;;;;;;22.50;12.70;;;4.30;99.90;;;;;;4853992;29;21067;-84
2020/12/10 10:20:09;;;;;;;19.43;10.70;;;4.40;99.90;;;;;;4870001;29;20522;-85
2020/12/10 10:22:38;;;;;;;16.00;9.47;;;4.60;99.90;;;;;;4871887;29;20202;-87
2020/12/10 10:25:05;;;;;;;20.27;11.07;;;4.70;99.90;;;;;;4843528;29;20321;-79
2020/12/10 10:27:31;;;;;;;17.07;10.83;;;4.80;99.90;;;;;;4870047;29;20461;-86
2020/12/10 10:46:54;;;;;;;16.97;10.53;;;5.10;99.90;;;;;;4846967;27;20513;-87
2020/12/10 10:49:22;;;;;;;14.67;8.40;;;5.00;99.90;;;;;;4877405;29;20517;-87
2020/12/10 10:51:49;;;;;;;16.93;10.93;;;4.80;99.90;;;;;;4878075;29;20775;-86
2020/12/10 10:54:15;;;;;;;22.20;10.80;;;4.90;99.90;;;;;;4867811;29;20450;-88
2020/12/10 10:56:41;;;;;;;20.20;10.63;;;4.90;99.90;;;;;;4860877;29;20492;-86
2020/12/10 10:59:10;;;;;;;14.63;9.23;;;4.90;99.90;;;;;;4879375;29;20438;-90
2020/12/10 11:01:45;;;;;;;20.13;10.30;;;5.00;99.90;;;;;;4875064;29;20485;-88
2020/12/10 11:04:11;;;;;;;20.80;8.20;;;5.00;99.90;;;;;;4866710;29;20998;-88
2020/12/10 11:07:06;;;;;;;20.50;11.30;;;4.90;99.90;;;;;;4870206;29;20501;-90
2020/12/10 11:09:36;;;;;;;15.90;10.70;;;4.90;99.90;;;;;;4891904;29;20220;-88
2020/12/10 11:12:05;;;;;;;20.73;10.40;;;5.00;99.90;;;;;;4876719;29;20529;-88
2020/12/10 11:14:42;;;;;;;18.33;9.83;;;5.20;99.90;;;;;;4868157;29;20493;-83
2020/12/10 11:17:14;;;;;;;21.30;11.63;;;5.20;99.90;;;;;;4877705;29;21056;-89
2020/12/10 11:19:49;;;;;;;22.00;11.03;;;5.20;99.90;;;;;;4879547;29;20505;-88
2020/12/10 11:22:21;;;;;;;20.67;10.70;;;5.20;99.90;;;;;;4889730;29;20461;-86
2020/12/10 12:30:18;;;;;;;18.70;11.43;;;5.10;99.90;;;;;;6250791;23;21764;-87
2020/12/10 12:32:44;;;;;;;20.77;10.93;;;5.10;99.90;;;;;;6223173;23;20385;-86
2020/12/10 12:35:09;;;;;;;14.70;8.50;;;5.20;99.90;;;;;;6198152;23;20419;-86
2020/12/10 12:37:38;;;;;;;15.40;9.20;;;5.20;99.90;;;;;;6252436;23;20158;-85
2020/12/10 12:40:04;;;;;;;16.93;10.20;;;4.90;99.90;;;;;;6250921;23;20143;-85
2020/12/10 12:42:33;;;;;;;19.20;13.20;;;4.80;99.90;;;;;;6226062;23;20390;-89
2020/12/10 12:45:02;;;;;;;19.47;11.10;;;4.70;99.90;;;;;;6254121;23;20213;-85
2020/12/10 12:47:31;;;;;;;18.40;10.93;;;4.70;99.90;;;;;;6198669;23;20902;-84
2020/12/10 12:49:57;;;;;;;17.80;10.27;;;4.60;99.90;;;;;;6201069;23;20389;-86
2020/12/10 12:52:31;;;;;;;8.13;5.60;;;4.70;99.90;;;;;;6229505;23;20425;-88
2020/12/10 12:55:02;;;;;;;16.53;9.93;;;4.60;99.90;;;;;;6223837;23;20419;-84
2020/12/10 12:57:44;;;;;;;16.50;10.40;;;4.50;99.90;;;;;;6200863;23;20384;-89
2020/12/10 13:00:12;;;;;;;25.57;12.67;;;4.40;99.90;;;;;;6223062;22;20424;-84
2020/12/10 13:02:50;;;;;;;17.90;10.40;;;4.40;99.90;;;;;;6221692;23;20436;-86
2020/12/10 13:05:33;;;;;;;18.33;10.30;;;4.50;99.90;;;;;;6196744;23;20431;-85
2020/12/10 13:08:05;;;;;;;22.57;11.77;;;4.60;99.90;;;;;;6222640;23;20373;-85
2020/12/10 13:10:43;;;;;;;19.40;9.97;;;4.60;99.90;;;;;;6201756;23;20424;-85
2020/12/10 13:13:20;;;;;;;15.60;10.03;;;4.70;99.90;;;;;;6224426;23;20469;-85
2020/12/10 13:15:46;;;;;;;19.30;10.73;;;4.60;99.90;;;;;;6223495;23;20401;-88
2020/12/10 13:18:17;;;;;;;18.17;10.80;;;4.50;99.90;;;;;;6225327;23;20862;-89
2020/12/10 13:20:43;;;;;;;16.10;9.83;;;4.50;99.90;;;;;;6226517;23;20709;-87
2020/12/10 13:23:08;;;;;;;26.30;11.33;;;4.60;99.90;;;;;;6226705;23;20522;-84
2020/12/10 13:25:34;;;;;;;16.10;10.50;;;4.70;99.90;;;;;;6234807;23;20749;-87
2020/12/10 13:28:00;;;;;;;18.40;9.90;;;4.70;99.90;;;;;;6239372;23;20401;-85
2020/12/10 13:30:26;;;;;;;18.57;9.90;;;4.80;99.90;;;;;;6195503;23;20156;-90
2020/12/10 13:32:52;;;;;;;17.37;9.93;;;4.80;99.90;;;;;;6219260;23;20159;-87
2020/12/10 13:35:18;;;;;;;17.17;10.87;;;4.80;99.90;;;;;;6245885;23;20171;-89
2020/12/10 13:37:44;;;;;;;15.83;9.10;;;4.80;99.90;;;;;;6218831;23;20382;-89
2020/12/10 13:40:12;;;;;;;17.27;8.80;;;4.80;99.90;;;;;;6217264;23;20386;-86
2020/12/10 13:42:53;;;;;;;13.93;10.20;;;4.70;99.90;;;;;;6241558;23;20226;-88
2020/12/10 13:45:22;;;;;;;19.77;10.40;;;4.70;99.90;;;;;;6198620;23;20402;-89
2020/12/10 13:47:54;;;;;;;17.40;9.70;;;4.70;99.90;;;;;;6224097;23;20382;-87
2020/12/10 13:50:20;;;;;;;16.97;9.90;;;4.80;99.90;;;;;;6194450;23;20459;-85
2020/12/10 13:52:48;;;;;;;18.17;9.80;;;4.80;99.90;;;;;;6221129;23;20386;-85
2020/12/10 13:55:17;;;;;;;18.00;11.47;;;4.80;99.90;;;;;;6226125;23;20406;-90
2020/12/10 13:57:45;;;;;;;17.87;10.90;;;4.80;99.90;;;;;;6223704;23;20386;-88
2020/12/10 14:00:11;;;;;;;16.67;10.33;;;4.80;99.90;;;;;;6224917;23;20385;-87
2020/12/10 14:02:37;;;;;;;18.10;10.83;;;4.70;99.90;;;;;;6197910;23;20430;-87
2020/12/10 14:05:03;;;;;;;17.97;10.57;;;4.80;99.90;;;;;;6222521;23;20485;-87
2020/12/10 14:07:28;;;;;;;18.43;10.37;;;4.70;99.90;;;;;;6222565;23;20421;-87
2020/12/10 14:09:54;;;;;;;16.17;9.73;;;4.70;99.90;;;;;;6223763;23;20425;-88
2020/12/10 14:12:20;;;;;;;19.20;10.60;;;4.70;99.90;;;;;;6223478;23;20237;-87
2020/12/10 14:14:46;;;;;;;16.43;9.53;;;4.70;99.90;;;;;;6222123;23;20235;-86
2020/12/10 14:17:18;;;;;;;16.90;10.53;;;4.70;99.90;;;;;;6198294;23;20521;-87
2020/12/10 14:19:43;;;;;;;12.70;6.97;;;4.70;99.90;;;;;;6225233;23;20397;-88
2020/12/10 14:22:15;;;;;;;15.50;9.40;;;4.60;99.90;;;;;;6194849;23;20695;-84
2020/12/10 14:24:40;;;;;;;17.33;10.70;;;4.60;99.90;;;;;;6179186;23;20421;-84
2020/12/10 14:27:06;;;;;;;17.00;10.57;;;4.70;99.90;;;;;;6246097;23;20317;-88
2020/12/10 14:29:32;;;;;;;15.27;8.90;;;4.60;99.90;;;;;;6197148;23;20178;-87
2020/12/10 14:32:00;;;;;;;14.77;9.57;;;4.60;99.90;;;;;;6242205;23;20535;-90